sensor_id;sensor_type;location;lat;lon;timestamp;P1;durP1;ratioP1;P2;durP2;ratioP2
71677;SDS011;59511;52.136;6.206;2023-12-22T00:01:07;5.15;;;2.40;;
71677;SDS011;59511;52.136;6.206;2023-12-22T00:03:33;6.13;;;2.67;;
71677;SDS011;59511;52.136;6.206;2023-12-22T00:05:58;5.97;;;2.40;;
71677;SDS011;59511;52.136;6.206;2023-12-22T00:08:23;5.20;;;2.40;;
71677;SDS011;59511;52.136;6.206;2023-12-22T00:10:49;4.53;;;2.50;;
71677;SDS011;59511;52.136;6.206;2023-12-22T00:13:14;5.07;;;2.63;;
71677;SDS011;59511;52.136;6.206;2023-12-22T00:15:40;4.57;;;2.07;;
71677;SDS011;59511;52.136;6.206;2023-12-22T00:18:07;4.32;;;2.28;;
71677;SDS011;59511;52.136;6.206;2023-12-22T00:20:32;4.77;;;2.30;;
71677;SDS011;59511;52.136;6.206;2023-12-22T00:22:58;5.07;;;2.43;;
71677;SDS011;59511;52.136;6.206;2023-12-22T00:25:23;6.50;;;2.30;;
71677;SDS011;59511;52.136;6.206;2023-12-22T00:27:49;4.70;;;2.20;;
71677;SDS011;59511;52.136;6.206;2023-12-22T00:30:14;4.57;;;2.50;;
71677;SDS011;59511;52.136;6.206;2023-12-22T00:32:39;4.93;;;2.27;;
71677;SDS011;59511;52.136;6.206;2023-12-22T00:35:05;5.27;;;2.57;;
71677;SDS011;59511;52.136;6.206;2023-12-22T00:37:30;4.72;;;2.13;;
71677;SDS011;59511;52.136;6.206;2023-12-22T00:39:56;4.70;;;2.30;;
71677;SDS011;59511;52.136;6.206;2023-12-22T00:42:21;5.53;;;2.10;;
71677;SDS011;59511;52.136;6.206;2023-12-22T00:44:46;4.90;;;2.20;;
71677;SDS011;59511;52.136;6.206;2023-12-22T00:47:12;3.73;;;1.97;;
71677;SDS011;59511;52.136;6.206;2023-12-22T00:49:37;4.20;;;2.25;;
71677;SDS011;59511;52.136;6.206;2023-12-22T00:52:03;4.53;;;2.10;;
71677;SDS011;59511;52.136;6.206;2023-12-22T00:54:28;5.07;;;2.13;;
71677;SDS011;59511;52.136;6.206;2023-12-22T00:56:56;5.30;;;2.00;;
71677;SDS011;59511;52.136;6.206;2023-12-22T00:59:22;4.68;;;2.38;;
71677;SDS011;59511;52.136;6.206;2023-12-22T01:01:47;4.47;;;2.17;;
71677;SDS011;59511;52.136;6.206;2023-12-22T01:04:13;4.87;;;2.20;;
71677;SDS011;59511;52.136;6.206;2023-12-22T01:06:38;5.07;;;2.40;;
71677;SDS011;59511;52.136;6.206;2023-12-22T01:09:04;5.80;;;2.03;;
71677;SDS011;59511;52.136;6.206;2023-12-22T01:11:30;5.00;;;2.20;;
71677;SDS011;59511;52.136;6.206;2023-12-22T01:13:55;4.07;;;2.30;;
71677;SDS011;59511;52.136;6.206;2023-12-22T01:16:20;4.80;;;1.97;;
71677;SDS011;59511;52.136;6.206;2023-12-22T01:18:47;4.77;;;2.40;;
71677;SDS011;59511;52.136;6.206;2023-12-22T01:21:12;4.35;;;1.92;;
71677;SDS011;59511;52.136;6.206;2023-12-22T01:23:38;5.03;;;1.83;;
71677;SDS011;59511;52.136;6.206;2023-12-22T01:26:03;4.77;;;2.00;;
71677;SDS011;59511;52.136;6.206;2023-12-22T01:28:28;4.43;;;2.03;;
71677;SDS011;59511;52.136;6.206;2023-12-22T01:30:54;4.70;;;1.90;;
71677;SDS011;59511;52.136;6.206;2023-12-22T01:33:19;3.90;;;1.90;;
71677;SDS011;59511;52.136;6.206;2023-12-22T01:35:44;5.50;;;1.87;;
71677;SDS011;59511;52.136;6.206;2023-12-22T01:38:09;4.13;;;2.00;;
71677;SDS011;59511;52.136;6.206;2023-12-22T01:40:35;4.00;;;1.80;;
71677;SDS011;59511;52.136;6.206;2023-12-22T01:43:01;4.23;;;1.93;;
71677;SDS011;59511;52.136;6.206;2023-12-22T01:45:26;4.38;;;2.03;;
71677;SDS011;59511;52.136;6.206;2023-12-22T01:47:52;4.37;;;1.87;;
71677;SDS011;59511;52.136;6.206;2023-12-22T01:50:17;4.47;;;1.60;;
71677;SDS011;59511;52.136;6.206;2023-12-22T01:52:43;4.05;;;2.20;;
71677;SDS011;59511;52.136;6.206;2023-12-22T01:55:10;3.85;;;2.25;;
71677;SDS011;59511;52.136;6.206;2023-12-22T01:57:38;3.83;;;1.80;;
71677;SDS011;59511;52.136;6.206;2023-12-22T02:00:06;4.68;;;1.83;;
71677;SDS011;59511;52.136;6.206;2023-12-22T02:02:32;4.53;;;2.15;;
71677;SDS011;59511;52.136;6.206;2023-12-22T02:04:58;3.97;;;1.73;;
71677;SDS011;59511;52.136;6.206;2023-12-22T02:07:24;4.72;;;1.90;;
71677;SDS011;59511;52.136;6.206;2023-12-22T02:09:50;3.47;;;1.80;;
71677;SDS011;59511;52.136;6.206;2023-12-22T02:12:15;4.83;;;1.90;;
71677;SDS011;59511;52.136;6.206;2023-12-22T02:14:41;3.00;;;1.50;;
71677;SDS011;59511;52.136;6.206;2023-12-22T02:19:47;3.40;;;2.05;;
71677;SDS011;59511;52.136;6.206;2023-12-22T02:22:13;3.23;;;1.77;;
71677;SDS011;59511;52.136;6.206;2023-12-22T02:24:39;4.47;;;1.83;;
71677;SDS011;59511;52.136;6.206;2023-12-22T02:27:06;4.65;;;1.85;;
71677;SDS011;59511;52.136;6.206;2023-12-22T02:29:41;4.68;;;1.90;;
71677;SDS011;59511;52.136;6.206;2023-12-22T02:32:12;5.20;;;1.90;;
71677;SDS011;59511;52.136;6.206;2023-12-22T02:34:47;4.32;;;1.67;;
71677;SDS011;59511;52.136;6.206;2023-12-22T02:37:15;3.77;;;1.70;;
71677;SDS011;59511;52.136;6.206;2023-12-22T02:39:43;3.42;;;1.90;;
71677;SDS011;59511;52.136;6.206;2023-12-22T02:42:08;4.30;;;1.80;;
71677;SDS011;59511;52.136;6.206;2023-12-22T02:44:35;2.88;;;1.50;;
71677;SDS011;59511;52.136;6.206;2023-12-22T02:47:00;3.83;;;1.73;;
71677;SDS011;59511;52.136;6.206;2023-12-22T02:49:25;4.00;;;1.73;;
71677;SDS011;59511;52.136;6.206;2023-12-22T02:51:51;3.17;;;1.50;;
71677;SDS011;59511;52.136;6.206;2023-12-22T02:54:16;3.13;;;1.70;;
71677;SDS011;59511;52.136;6.206;2023-12-22T02:56:41;4.30;;;1.57;;
71677;SDS011;59511;52.136;6.206;2023-12-22T02:59:08;4.05;;;1.50;;
71677;SDS011;59511;52.136;6.206;2023-12-22T03:01:34;3.33;;;1.45;;
71677;SDS011;59511;52.136;6.206;2023-12-22T03:04:00;3.97;;;1.87;;
71677;SDS011;59511;52.136;6.206;2023-12-22T03:06:25;5.27;;;1.87;;
71677;SDS011;59511;52.136;6.206;2023-12-22T03:08:50;4.07;;;1.80;;
71677;SDS011;59511;52.136;6.206;2023-12-22T03:11:15;3.05;;;1.40;;
71677;SDS011;59511;52.136;6.206;2023-12-22T03:13:41;3.93;;;1.43;;
71677;SDS011;59511;52.136;6.206;2023-12-22T03:16:08;4.28;;;1.80;;
71677;SDS011;59511;52.136;6.206;2023-12-22T03:18:34;3.47;;;1.30;;
71677;SDS011;59511;52.136;6.206;2023-12-22T03:20:59;4.00;;;1.50;;
71677;SDS011;59511;52.136;6.206;2023-12-22T03:23:24;6.07;;;1.90;;
71677;SDS011;59511;52.136;6.206;2023-12-22T03:25:50;4.77;;;1.40;;
71677;SDS011;59511;52.136;6.206;2023-12-22T03:28:15;4.17;;;1.80;;
71677;SDS011;59511;52.136;6.206;2023-12-22T03:30:40;3.10;;;1.83;;
71677;SDS011;59511;52.136;6.206;2023-12-22T03:33:06;3.43;;;1.47;;
71677;SDS011;59511;52.136;6.206;2023-12-22T03:35:31;4.05;;;1.52;;
71677;SDS011;59511;52.136;6.206;2023-12-22T03:37:57;3.40;;;1.50;;
71677;SDS011;59511;52.136;6.206;2023-12-22T03:40:22;3.80;;;1.40;;
71677;SDS011;59511;52.136;6.206;2023-12-22T03:42:47;3.87;;;1.57;;
71677;SDS011;59511;52.136;6.206;2023-12-22T03:45:13;4.03;;;1.53;;
71677;SDS011;59511;52.136;6.206;2023-12-22T03:47:38;4.63;;;1.83;;
71677;SDS011;59511;52.136;6.206;2023-12-22T03:50:03;3.00;;;1.30;;
71677;SDS011;59511;52.136;6.206;2023-12-22T03:52:29;3.23;;;1.23;;
71677;SDS011;59511;52.136;6.206;2023-12-22T03:54:54;4.17;;;1.50;;
71677;SDS011;59511;52.136;6.206;2023-12-22T03:57:20;4.33;;;1.70;;
71677;SDS011;59511;52.136;6.206;2023-12-22T03:59:45;3.92;;;1.52;;
71677;SDS011;59511;52.136;6.206;2023-12-22T04:02:10;2.90;;;1.70;;
71677;SDS011;59511;52.136;6.206;2023-12-22T04:04:39;3.20;;;1.23;;
71677;SDS011;59511;52.136;6.206;2023-12-22T04:07:04;2.95;;;1.23;;
71677;SDS011;59511;52.136;6.206;2023-12-22T04:09:30;3.47;;;1.60;;
71677;SDS011;59511;52.136;6.206;2023-12-22T04:11:55;3.83;;;1.20;;
71677;SDS011;59511;52.136;6.206;2023-12-22T04:14:20;3.57;;;1.43;;
71677;SDS011;59511;52.136;6.206;2023-12-22T04:16:46;3.33;;;1.33;;
71677;SDS011;59511;52.136;6.206;2023-12-22T04:19:11;3.23;;;1.37;;
71677;SDS011;59511;52.136;6.206;2023-12-22T04:21:36;2.73;;;1.40;;
71677;SDS011;59511;52.136;6.206;2023-12-22T04:24:02;4.40;;;1.80;;
71677;SDS011;59511;52.136;6.206;2023-12-22T04:26:27;3.00;;;1.33;;
71677;SDS011;59511;52.136;6.206;2023-12-22T04:28:53;3.70;;;1.37;;
71677;SDS011;59511;52.136;6.206;2023-12-22T04:31:18;4.63;;;1.47;;
71677;SDS011;59511;52.136;6.206;2023-12-22T04:33:43;3.80;;;1.30;;
71677;SDS011;59511;52.136;6.206;2023-12-22T04:36:09;2.90;;;1.20;;
71677;SDS011;59511;52.136;6.206;2023-12-22T04:38:34;2.80;;;1.40;;
71677;SDS011;59511;52.136;6.206;2023-12-22T04:41:00;3.33;;;1.60;;
71677;SDS011;59511;52.136;6.206;2023-12-22T04:43:25;3.27;;;1.20;;
71677;SDS011;59511;52.136;6.206;2023-12-22T04:45:51;4.13;;;1.40;;
71677;SDS011;59511;52.136;6.206;2023-12-22T04:48:16;3.10;;;1.30;;
71677;SDS011;59511;52.136;6.206;2023-12-22T04:50:41;2.83;;;1.37;;
71677;SDS011;59511;52.136;6.206;2023-12-22T04:53:07;2.73;;;1.20;;
71677;SDS011;59511;52.136;6.206;2023-12-22T04:55:32;3.20;;;1.30;;
71677;SDS011;59511;52.136;6.206;2023-12-22T04:57:57;2.63;;;1.20;;
71677;SDS011;59511;52.136;6.206;2023-12-22T05:00:23;3.50;;;1.30;;
71677;SDS011;59511;52.136;6.206;2023-12-22T05:02:49;3.58;;;1.55;;
71677;SDS011;59511;52.136;6.206;2023-12-22T05:05:14;3.67;;;1.40;;
71677;SDS011;59511;52.136;6.206;2023-12-22T05:07:39;3.27;;;1.27;;
71677;SDS011;59511;52.136;6.206;2023-12-22T05:10:05;3.70;;;1.30;;
71677;SDS011;59511;52.136;6.206;2023-12-22T05:12:31;3.15;;;1.40;;
71677;SDS011;59511;52.136;6.206;2023-12-22T05:14:56;2.60;;;1.30;;
71677;SDS011;59511;52.136;6.206;2023-12-22T05:17:21;3.10;;;1.07;;
71677;SDS011;59511;52.136;6.206;2023-12-22T05:19:47;2.90;;;1.47;;
71677;SDS011;59511;52.136;6.206;2023-12-22T05:22:12;3.30;;;1.20;;
71677;SDS011;59511;52.136;6.206;2023-12-22T05:24:37;3.00;;;1.35;;
71677;SDS011;59511;52.136;6.206;2023-12-22T05:27:03;2.60;;;1.17;;
71677;SDS011;59511;52.136;6.206;2023-12-22T05:29:29;3.40;;;1.33;;
71677;SDS011;59511;52.136;6.206;2023-12-22T05:31:54;2.35;;;1.02;;
71677;SDS011;59511;52.136;6.206;2023-12-22T05:34:20;3.43;;;1.50;;
71677;SDS011;59511;52.136;6.206;2023-12-22T05:36:45;2.77;;;1.30;;
71677;SDS011;59511;52.136;6.206;2023-12-22T05:39:11;2.57;;;1.07;;
71677;SDS011;59511;52.136;6.206;2023-12-22T05:41:36;3.47;;;1.30;;
71677;SDS011;59511;52.136;6.206;2023-12-22T05:44:03;2.45;;;1.40;;
71677;SDS011;59511;52.136;6.206;2023-12-22T05:46:30;2.25;;;1.25;;
71677;SDS011;59511;52.136;6.206;2023-12-22T05:48:55;2.47;;;0.97;;
71677;SDS011;59511;52.136;6.206;2023-12-22T05:51:24;2.78;;;1.60;;
71677;SDS011;59511;52.136;6.206;2023-12-22T05:53:50;3.17;;;1.10;;
71677;SDS011;59511;52.136;6.206;2023-12-22T05:56:18;3.27;;;1.10;;
71677;SDS011;59511;52.136;6.206;2023-12-22T05:58:45;2.75;;;1.00;;
71677;SDS011;59511;52.136;6.206;2023-12-22T06:01:14;2.72;;;1.15;;
71677;SDS011;59511;52.136;6.206;2023-12-22T06:03:41;2.70;;;0.95;;
71677;SDS011;59511;52.136;6.206;2023-12-22T06:06:06;2.40;;;0.97;;
71677;SDS011;59511;52.136;6.206;2023-12-22T06:08:31;2.73;;;1.03;;
71677;SDS011;59511;52.136;6.206;2023-12-22T06:10:57;3.07;;;1.17;;
71677;SDS011;59511;52.136;6.206;2023-12-22T06:13:22;4.00;;;1.23;;
71677;SDS011;59511;52.136;6.206;2023-12-22T06:15:49;3.50;;;1.27;;
71677;SDS011;59511;52.136;6.206;2023-12-22T06:18:14;5.13;;;1.10;;
71677;SDS011;59511;52.136;6.206;2023-12-22T06:20:39;2.80;;;1.00;;
71677;SDS011;59511;52.136;6.206;2023-12-22T06:23:05;2.87;;;1.00;;
71677;SDS011;59511;52.136;6.206;2023-12-22T06:25:30;2.90;;;1.30;;
71677;SDS011;59511;52.136;6.206;2023-12-22T06:27:55;5.13;;;1.37;;
71677;SDS011;59511;52.136;6.206;2023-12-22T06:30:21;3.93;;;0.97;;
71677;SDS011;59511;52.136;6.206;2023-12-22T06:32:46;2.63;;;1.03;;
71677;SDS011;59511;52.136;6.206;2023-12-22T06:35:13;3.45;;;1.35;;
71677;SDS011;59511;52.136;6.206;2023-12-22T06:37:38;2.57;;;1.27;;
71677;SDS011;59511;52.136;6.206;2023-12-22T06:40:04;2.50;;;1.20;;
71677;SDS011;59511;52.136;6.206;2023-12-22T06:42:30;3.40;;;1.30;;
71677;SDS011;59511;52.136;6.206;2023-12-22T06:44:55;5.30;;;0.93;;
71677;SDS011;59511;52.136;6.206;2023-12-22T06:47:20;3.47;;;1.10;;
71677;SDS011;59511;52.136;6.206;2023-12-22T06:49:46;4.53;;;1.10;;
71677;SDS011;59511;52.136;6.206;2023-12-22T06:52:11;3.42;;;1.10;;
71677;SDS011;59511;52.136;6.206;2023-12-22T06:54:36;7.13;;;1.30;;
71677;SDS011;59511;52.136;6.206;2023-12-22T06:57:02;3.13;;;1.40;;
71677;SDS011;59511;52.136;6.206;2023-12-22T06:59:27;2.77;;;1.03;;
71677;SDS011;59511;52.136;6.206;2023-12-22T07:01:53;2.83;;;0.98;;
71677;SDS011;59511;52.136;6.206;2023-12-22T07:04:18;2.73;;;1.10;;
71677;SDS011;59511;52.136;6.206;2023-12-22T07:06:43;3.60;;;1.00;;
71677;SDS011;59511;52.136;6.206;2023-12-22T07:11:47;5.00;;;1.33;;
71677;SDS011;59511;52.136;6.206;2023-12-22T07:14:15;2.28;;;0.80;;
71677;SDS011;59511;52.136;6.206;2023-12-22T07:16:41;3.85;;;1.05;;
71677;SDS011;59511;52.136;6.206;2023-12-22T07:19:09;4.45;;;1.30;;
71677;SDS011;59511;52.136;6.206;2023-12-22T07:21:37;4.20;;;1.10;;
71677;SDS011;59511;52.136;6.206;2023-12-22T07:24:03;3.83;;;1.40;;
71677;SDS011;59511;52.136;6.206;2023-12-22T07:26:29;6.10;;;1.00;;
71677;SDS011;59511;52.136;6.206;2023-12-22T07:28:54;5.33;;;1.00;;
71677;SDS011;59511;52.136;6.206;2023-12-22T07:31:20;3.08;;;1.02;;
71677;SDS011;59511;52.136;6.206;2023-12-22T07:33:45;4.70;;;1.13;;
71677;SDS011;59511;52.136;6.206;2023-12-22T07:36:11;4.53;;;1.30;;
71677;SDS011;59511;52.136;6.206;2023-12-22T07:38:37;3.70;;;1.00;;
71677;SDS011;59511;52.136;6.206;2023-12-22T07:41:04;4.70;;;0.90;;
71677;SDS011;59511;52.136;6.206;2023-12-22T07:43:29;6.47;;;1.30;;
71677;SDS011;59511;52.136;6.206;2023-12-22T07:45:55;4.57;;;1.10;;
71677;SDS011;59511;52.136;6.206;2023-12-22T07:48:20;3.97;;;1.00;;
71677;SDS011;59511;52.136;6.206;2023-12-22T07:50:46;4.05;;;1.08;;
71677;SDS011;59511;52.136;6.206;2023-12-22T07:53:11;3.63;;;0.97;;
71677;SDS011;59511;52.136;6.206;2023-12-22T07:55:37;3.67;;;1.30;;
71677;SDS011;59511;52.136;6.206;2023-12-22T07:58:03;4.28;;;1.15;;
71677;SDS011;59511;52.136;6.206;2023-12-22T08:00:29;4.80;;;1.05;;
71677;SDS011;59511;52.136;6.206;2023-12-22T08:02:54;4.10;;;1.10;;
71677;SDS011;59511;52.136;6.206;2023-12-22T08:05:20;2.70;;;0.90;;
71677;SDS011;59511;52.136;6.206;2023-12-22T08:07:45;3.53;;;1.33;;
71677;SDS011;59511;52.136;6.206;2023-12-22T08:10:14;4.78;;;1.23;;
71677;SDS011;59511;52.136;6.206;2023-12-22T08:12:40;2.67;;;1.00;;
71677;SDS011;59511;52.136;6.206;2023-12-22T08:15:06;3.88;;;1.17;;
71677;SDS011;59511;52.136;6.206;2023-12-22T08:17:32;2.67;;;1.30;;
71677;SDS011;59511;52.136;6.206;2023-12-22T08:19:58;3.35;;;1.40;;
71677;SDS011;59511;52.136;6.206;2023-12-22T08:22:23;4.23;;;1.00;;
71677;SDS011;59511;52.136;6.206;2023-12-22T08:24:49;4.23;;;1.10;;
71677;SDS011;59511;52.136;6.206;2023-12-22T08:27:14;3.92;;;1.40;;
71677;SDS011;59511;52.136;6.206;2023-12-22T08:29:40;4.13;;;1.20;;
71677;SDS011;59511;52.136;6.206;2023-12-22T08:32:05;3.73;;;1.13;;
71677;SDS011;59511;52.136;6.206;2023-12-22T08:34:31;4.35;;;1.52;;
71677;SDS011;59511;52.136;6.206;2023-12-22T08:36:56;3.90;;;1.20;;
71677;SDS011;59511;52.136;6.206;2023-12-22T08:39:21;2.73;;;1.00;;
71677;SDS011;59511;52.136;6.206;2023-12-22T08:41:49;3.30;;;0.88;;
71677;SDS011;59511;52.136;6.206;2023-12-22T08:44:14;3.37;;;0.70;;
71677;SDS011;59511;52.136;6.206;2023-12-22T08:46:40;4.07;;;1.00;;
71677;SDS011;59511;52.136;6.206;2023-12-22T08:49:06;3.25;;;1.20;;
71677;SDS011;59511;52.136;6.206;2023-12-22T08:51:32;5.25;;;1.40;;
71677;SDS011;59511;52.136;6.206;2023-12-22T08:53:59;3.57;;;1.10;;
71677;SDS011;59511;52.136;6.206;2023-12-22T08:56:25;4.57;;;1.20;;
71677;SDS011;59511;52.136;6.206;2023-12-22T08:58:51;2.92;;;1.05;;
71677;SDS011;59511;52.136;6.206;2023-12-22T09:01:17;4.03;;;1.00;;
71677;SDS011;59511;52.136;6.206;2023-12-22T09:03:44;2.78;;;1.08;;
71677;SDS011;59511;52.136;6.206;2023-12-22T09:06:15;3.53;;;1.13;;
71677;SDS011;59511;52.136;6.206;2023-12-22T09:08:41;2.72;;;1.00;;
71677;SDS011;59511;52.136;6.206;2023-12-22T09:11:07;3.80;;;0.90;;
71677;SDS011;59511;52.136;6.206;2023-12-22T09:13:33;4.85;;;1.00;;
71677;SDS011;59511;52.136;6.206;2023-12-22T09:16:00;3.40;;;1.20;;
71677;SDS011;59511;52.136;6.206;2023-12-22T09:18:26;3.25;;;1.00;;
71677;SDS011;59511;52.136;6.206;2023-12-22T09:20:51;4.57;;;1.30;;
71677;SDS011;59511;52.136;6.206;2023-12-22T09:23:16;3.43;;;1.27;;
71677;SDS011;59511;52.136;6.206;2023-12-22T09:25:42;3.10;;;1.13;;
71677;SDS011;59511;52.136;6.206;2023-12-22T09:28:07;3.00;;;1.20;;
71677;SDS011;59511;52.136;6.206;2023-12-22T09:30:32;3.33;;;1.30;;
71677;SDS011;59511;52.136;6.206;2023-12-22T09:32:58;3.83;;;1.30;;
71677;SDS011;59511;52.136;6.206;2023-12-22T09:35:23;3.25;;;1.10;;
71677;SDS011;59511;52.136;6.206;2023-12-22T09:37:50;3.13;;;1.30;;
71677;SDS011;59511;52.136;6.206;2023-12-22T09:40:16;3.78;;;1.50;;
71677;SDS011;59511;52.136;6.206;2023-12-22T09:42:41;2.60;;;0.87;;
71677;SDS011;59511;52.136;6.206;2023-12-22T09:45:10;2.90;;;1.08;;
71677;SDS011;59511;52.136;6.206;2023-12-22T09:47:43;3.05;;;1.08;;
71677;SDS011;59511;52.136;6.206;2023-12-22T09:50:09;3.38;;;1.17;;
71677;SDS011;59511;52.136;6.206;2023-12-22T09:52:35;3.10;;;1.00;;
71677;SDS011;59511;52.136;6.206;2023-12-22T09:55:02;4.15;;;1.20;;
71677;SDS011;59511;52.136;6.206;2023-12-22T09:57:28;2.60;;;1.00;;
71677;SDS011;59511;52.136;6.206;2023-12-22T09:59:56;2.88;;;1.13;;
71677;SDS011;59511;52.136;6.206;2023-12-22T10:02:24;4.38;;;1.20;;
71677;SDS011;59511;52.136;6.206;2023-12-22T10:04:51;2.95;;;0.82;;
71677;SDS011;59511;52.136;6.206;2023-12-22T10:07:17;3.03;;;1.20;;
71677;SDS011;59511;52.136;6.206;2023-12-22T10:09:42;3.90;;;1.10;;
71677;SDS011;59511;52.136;6.206;2023-12-22T10:12:11;3.07;;;1.00;;
71677;SDS011;59511;52.136;6.206;2023-12-22T10:14:37;3.10;;;1.08;;
71677;SDS011;59511;52.136;6.206;2023-12-22T10:17:04;2.67;;;1.00;;
71677;SDS011;59511;52.136;6.206;2023-12-22T10:19:30;4.10;;;0.75;;
71677;SDS011;59511;52.136;6.206;2023-12-22T10:21:55;3.30;;;1.33;;
71677;SDS011;59511;52.136;6.206;2023-12-22T10:24:37;3.70;;;0.90;;
71677;SDS011;59511;52.136;6.206;2023-12-22T10:27:03;2.85;;;1.13;;
71677;SDS011;59511;52.136;6.206;2023-12-22T10:29:29;4.18;;;1.17;;
71677;SDS011;59511;52.136;6.206;2023-12-22T10:31:54;5.43;;;1.27;;
71677;SDS011;59511;52.136;6.206;2023-12-22T10:34:20;3.03;;;0.90;;
71677;SDS011;59511;52.136;6.206;2023-12-22T10:36:45;3.27;;;1.20;;
71677;SDS011;59511;52.136;6.206;2023-12-22T10:39:11;4.93;;;0.90;;
71677;SDS011;59511;52.136;6.206;2023-12-22T10:41:36;2.73;;;0.97;;
71677;SDS011;59511;52.136;6.206;2023-12-22T10:44:02;2.83;;;1.10;;
71677;SDS011;59511;52.136;6.206;2023-12-22T10:46:28;3.75;;;1.30;;
71677;SDS011;59511;52.136;6.206;2023-12-22T10:48:58;2.73;;;1.27;;
71677;SDS011;59511;52.136;6.206;2023-12-22T10:51:24;3.63;;;1.30;;
71677;SDS011;59511;52.136;6.206;2023-12-22T10:53:50;2.57;;;1.10;;
71677;SDS011;59511;52.136;6.206;2023-12-22T10:56:16;3.08;;;1.17;;
71677;SDS011;59511;52.136;6.206;2023-12-22T10:58:42;5.23;;;1.23;;
71677;SDS011;59511;52.136;6.206;2023-12-22T11:01:07;6.05;;;1.10;;
71677;SDS011;59511;52.136;6.206;2023-12-22T11:03:37;3.78;;;1.25;;
71677;SDS011;59511;52.136;6.206;2023-12-22T11:06:04;4.20;;;0.90;;
71677;SDS011;59511;52.136;6.206;2023-12-22T11:08:32;2.50;;;1.10;;
71677;SDS011;59511;52.136;6.206;2023-12-22T11:11:01;3.95;;;1.17;;
71677;SDS011;59511;52.136;6.206;2023-12-22T11:13:38;8.25;;;1.05;;
71677;SDS011;59511;52.136;6.206;2023-12-22T11:16:04;2.47;;;0.90;;
71677;SDS011;59511;52.136;6.206;2023-12-22T11:18:31;4.38;;;1.17;;
71677;SDS011;59511;52.136;6.206;2023-12-22T11:21:00;2.70;;;0.80;;
71677;SDS011;59511;52.136;6.206;2023-12-22T11:23:29;3.28;;;1.23;;
71677;SDS011;59511;52.136;6.206;2023-12-22T11:25:56;4.50;;;1.13;;
71677;SDS011;59511;52.136;6.206;2023-12-22T11:28:24;3.45;;;1.10;;
71677;SDS011;59511;52.136;6.206;2023-12-22T11:30:51;4.30;;;1.10;;
71677;SDS011;59511;52.136;6.206;2023-12-22T11:33:17;3.75;;;1.30;;
71677;SDS011;59511;52.136;6.206;2023-12-22T11:35:43;3.27;;;1.53;;
71677;SDS011;59511;52.136;6.206;2023-12-22T11:38:11;3.70;;;1.15;;
71677;SDS011;59511;52.136;6.206;2023-12-22T11:40:38;4.43;;;1.20;;
71677;SDS011;59511;52.136;6.206;2023-12-22T11:43:08;4.70;;;1.30;;
71677;SDS011;59511;52.136;6.206;2023-12-22T11:45:33;3.45;;;1.38;;
71677;SDS011;59511;52.136;6.206;2023-12-22T11:48:06;3.05;;;1.00;;
71677;SDS011;59511;52.136;6.206;2023-12-22T11:50:33;3.03;;;1.00;;
71677;SDS011;59511;52.136;6.206;2023-12-22T11:53:17;3.73;;;1.20;;
71677;SDS011;59511;52.136;6.206;2023-12-22T11:56:05;3.33;;;1.00;;
71677;SDS011;59511;52.136;6.206;2023-12-22T11:58:40;3.63;;;0.83;;
71677;SDS011;59511;52.136;6.206;2023-12-22T12:01:07;2.40;;;0.90;;
71677;SDS011;59511;52.136;6.206;2023-12-22T12:03:35;3.53;;;1.00;;
71677;SDS011;59511;52.136;6.206;2023-12-22T12:06:11;3.78;;;1.10;;
71677;SDS011;59511;52.136;6.206;2023-12-22T12:08:36;2.90;;;1.00;;
71677;SDS011;59511;52.136;6.206;2023-12-22T12:11:02;3.63;;;0.70;;
71677;SDS011;59511;52.136;6.206;2023-12-22T12:13:28;4.35;;;1.13;;
71677;SDS011;59511;52.136;6.206;2023-12-22T12:15:56;4.97;;;1.10;;
71677;SDS011;59511;52.136;6.206;2023-12-22T12:18:27;2.80;;;1.20;;
71677;SDS011;59511;52.136;6.206;2023-12-22T12:20:53;2.90;;;1.15;;
71677;SDS011;59511;52.136;6.206;2023-12-22T12:23:19;3.23;;;1.33;;
71677;SDS011;59511;52.136;6.206;2023-12-22T12:25:44;2.80;;;0.90;;
71677;SDS011;59511;52.136;6.206;2023-12-22T12:28:10;3.00;;;1.03;;
71677;SDS011;59511;52.136;6.206;2023-12-22T12:30:38;3.30;;;1.10;;
71677;SDS011;59511;52.136;6.206;2023-12-22T12:33:08;4.60;;;1.10;;
71677;SDS011;59511;52.136;6.206;2023-12-22T12:35:35;3.13;;;0.80;;
71677;SDS011;59511;52.136;6.206;2023-12-22T12:38:05;5.03;;;1.00;;
71677;SDS011;59511;52.136;6.206;2023-12-22T12:40:34;4.20;;;1.30;;
71677;SDS011;59511;52.136;6.206;2023-12-22T12:43:04;3.47;;;0.88;;
71677;SDS011;59511;52.136;6.206;2023-12-22T12:45:30;4.23;;;1.20;;
71677;SDS011;59511;52.136;6.206;2023-12-22T12:47:59;3.60;;;1.30;;
71677;SDS011;59511;52.136;6.206;2023-12-22T12:50:26;3.92;;;1.10;;
71677;SDS011;59511;52.136;6.206;2023-12-22T12:52:53;3.50;;;0.90;;
71677;SDS011;59511;52.136;6.206;2023-12-22T12:55:25;3.10;;;0.98;;
71677;SDS011;59511;52.136;6.206;2023-12-22T12:57:54;4.53;;;1.30;;
71677;SDS011;59511;52.136;6.206;2023-12-22T13:00:27;3.47;;;1.20;;
71677;SDS011;59511;52.136;6.206;2023-12-22T13:02:54;2.80;;;0.90;;
71677;SDS011;59511;52.136;6.206;2023-12-22T13:05:24;3.58;;;1.00;;
71677;SDS011;59511;52.136;6.206;2023-12-22T13:07:50;3.70;;;1.20;;
71677;SDS011;59511;52.136;6.206;2023-12-22T13:10:27;3.40;;;1.00;;
71677;SDS011;59511;52.136;6.206;2023-12-22T13:13:01;2.57;;;0.87;;
71677;SDS011;59511;52.136;6.206;2023-12-22T13:15:26;3.05;;;0.80;;
71677;SDS011;59511;52.136;6.206;2023-12-22T13:17:52;3.60;;;1.10;;
71677;SDS011;59511;52.136;6.206;2023-12-22T13:20:17;3.33;;;0.97;;
71677;SDS011;59511;52.136;6.206;2023-12-22T13:22:43;3.15;;;0.93;;
71677;SDS011;59511;52.136;6.206;2023-12-22T13:25:09;2.70;;;1.20;;
71677;SDS011;59511;52.136;6.206;2023-12-22T13:27:48;3.40;;;1.00;;
71677;SDS011;59511;52.136;6.206;2023-12-22T13:33:05;3.70;;;1.17;;
71677;SDS011;59511;52.136;6.206;2023-12-22T13:35:31;3.77;;;0.83;;
71677;SDS011;59511;52.136;6.206;2023-12-22T13:37:57;3.15;;;1.30;;
71677;SDS011;59511;52.136;6.206;2023-12-22T13:40:23;3.35;;;1.00;;
71677;SDS011;59511;52.136;6.206;2023-12-22T13:42:56;3.10;;;0.90;;
71677;SDS011;59511;52.136;6.206;2023-12-22T13:45:25;3.38;;;1.08;;
71677;SDS011;59511;52.136;6.206;2023-12-22T13:47:54;2.30;;;1.10;;
71677;SDS011;59511;52.136;6.206;2023-12-22T13:50:24;4.10;;;1.08;;
71677;SDS011;59511;52.136;6.206;2023-12-22T13:52:52;3.27;;;1.20;;
71677;SDS011;59511;52.136;6.206;2023-12-22T13:55:18;5.20;;;1.25;;
71677;SDS011;59511;52.136;6.206;2023-12-22T13:57:58;3.63;;;1.38;;
71677;SDS011;59511;52.136;6.206;2023-12-22T14:00:29;3.47;;;1.27;;
71677;SDS011;59511;52.136;6.206;2023-12-22T14:02:55;3.25;;;1.10;;
71677;SDS011;59511;52.136;6.206;2023-12-22T14:05:21;3.75;;;1.20;;
71677;SDS011;59511;52.136;6.206;2023-12-22T14:07:46;5.60;;;1.20;;
71677;SDS011;59511;52.136;6.206;2023-12-22T14:10:13;4.30;;;1.15;;
71677;SDS011;59511;52.136;6.206;2023-12-22T14:12:39;4.50;;;1.27;;
71677;SDS011;59511;52.136;6.206;2023-12-22T14:15:09;5.05;;;1.60;;
71677;SDS011;59511;52.136;6.206;2023-12-22T14:17:35;4.10;;;1.50;;
71677;SDS011;59511;52.136;6.206;2023-12-22T14:20:01;5.43;;;1.30;;
71677;SDS011;59511;52.136;6.206;2023-12-22T14:22:34;5.45;;;1.55;;
71677;SDS011;59511;52.136;6.206;2023-12-22T14:25:00;4.78;;;1.30;;
71677;SDS011;59511;52.136;6.206;2023-12-22T14:27:26;3.63;;;1.13;;
71677;SDS011;59511;52.136;6.206;2023-12-22T14:29:51;3.40;;;1.27;;
71677;SDS011;59511;52.136;6.206;2023-12-22T14:32:20;3.63;;;1.27;;
71677;SDS011;59511;52.136;6.206;2023-12-22T14:34:48;3.08;;;1.13;;
71677;SDS011;59511;52.136;6.206;2023-12-22T14:37:16;3.20;;;1.23;;
71677;SDS011;59511;52.136;6.206;2023-12-22T14:39:42;4.53;;;1.40;;
71677;SDS011;59511;52.136;6.206;2023-12-22T14:42:10;3.00;;;1.00;;
71677;SDS011;59511;52.136;6.206;2023-12-22T14:44:38;3.75;;;1.15;;
71677;SDS011;59511;52.136;6.206;2023-12-22T14:47:05;3.23;;;1.20;;
71677;SDS011;59511;52.136;6.206;2023-12-22T14:49:34;3.17;;;1.20;;
71677;SDS011;59511;52.136;6.206;2023-12-22T14:51:59;4.00;;;1.13;;